createdAt,value
2022-11-13T00:01:50.947Z,100
2022-11-13T00:11:28.030Z,100
2022-11-13T00:21:03.971Z,100
2022-11-13T00:30:40.630Z,100
2022-11-13T00:40:17.406Z,100
2022-11-13T00:49:54.088Z,100
2022-11-13T00:59:30.199Z,100
2022-11-13T01:09:07.165Z,100
2022-11-13T01:18:44.278Z,100
2022-11-13T01:28:21.233Z,100
2022-11-13T01:37:57.781Z,100
2022-11-13T01:47:34.735Z,100
2022-11-13T01:57:11.299Z,100
2022-11-13T02:06:48.215Z,100
2022-11-13T02:16:24.882Z,100
2022-11-13T02:26:01.777Z,100
2022-11-13T02:35:38.517Z,100
2022-11-13T02:45:14.959Z,100
2022-11-13T02:54:51.329Z,100
2022-11-13T03:04:38.523Z,100
2022-11-13T03:14:04.549Z,100
2022-11-13T03:23:41.215Z,100
2022-11-13T03:33:17.533Z,100
2022-11-13T03:42:54.037Z,100
2022-11-13T03:52:30.885Z,100
2022-11-13T04:02:07.464Z,100
2022-11-13T04:11:43.715Z,100
2022-11-13T04:21:20.805Z,100
2022-11-13T04:30:57.115Z,100
2022-11-13T04:40:34.057Z,100
2022-11-13T04:50:10.552Z,100
2022-11-13T04:59:47.501Z,100
2022-11-13T05:19:00.891Z,100
2022-11-13T05:28:37.316Z,100
2022-11-13T05:38:13.987Z,100
2022-11-13T05:47:50.692Z,100
2022-11-13T05:57:27.324Z,100
2022-11-13T06:07:03.681Z,100
2022-11-13T06:16:40.504Z,100
2022-11-13T06:26:16.851Z,100
2022-11-13T06:35:53.837Z,100
2022-11-13T06:45:30.772Z,100
2022-11-13T06:55:06.660Z,100
2022-11-13T07:04:43.248Z,100
2022-11-13T07:14:20.102Z,100
2022-11-13T07:23:56.589Z,100
2022-11-13T07:33:33.629Z,100
2022-11-13T07:43:10.915Z,100
2022-11-13T07:52:47.684Z,100
2022-11-13T08:02:26.627Z,100
2022-11-13T08:12:01.673Z,100
2022-11-13T08:21:38.334Z,100
2022-11-13T08:31:15.907Z,100
2022-11-13T08:40:53.130Z,100
2022-11-13T09:00:07.596Z,100
2022-11-13T09:09:45.561Z,100
2022-11-13T09:19:21.629Z,100
2022-11-13T09:38:34.470Z,100
2022-11-13T09:48:12.385Z,100
2022-11-13T09:57:49.198Z,100
2022-11-13T10:07:26.947Z,100
2022-11-13T10:17:05.582Z,100
2022-11-13T10:26:43.425Z,100
2022-11-13T10:36:20.997Z,100
2022-11-13T10:45:59.100Z,99.4
2022-11-13T11:14:52.155Z,98.95
2022-11-13T11:24:30.983Z,97.36
2022-11-13T11:34:09.055Z,97.38
2022-11-13T11:43:47.559Z,97.77
2022-11-13T11:53:25.360Z,100
2022-11-13T12:03:03.464Z,99.05
2022-11-13T12:12:40.063Z,100
2022-11-13T12:22:13.440Z,100
2022-11-13T12:31:52.148Z,97.17
2022-11-13T12:41:27.262Z,100
2022-11-13T12:51:05.566Z,100
2022-11-13T13:01:12.343Z,97.61
2022-11-13T13:10:58.754Z,92.32
2022-11-13T13:20:38.770Z,89.58
2022-11-13T13:30:17.154Z,84.85
2022-11-13T13:39:49.465Z,89.96
2022-11-13T13:49:21.180Z,91.45
2022-11-13T13:58:48.009Z,88.06
2022-11-13T14:08:13.637Z,92.78
2022-11-13T14:17:44.596Z,97.05
2022-11-13T14:27:16.184Z,96.24
2022-11-13T14:46:26.251Z,100
2022-11-13T14:56:02.611Z,100
2022-11-13T15:05:38.122Z,100
2022-11-13T15:15:14.757Z,100
2022-11-13T15:24:50.633Z,100
2022-11-13T15:34:27.206Z,100
2022-11-13T15:44:03.442Z,100
2022-11-13T15:53:39.434Z,100
2022-11-13T16:03:15.768Z,100
2022-11-13T16:12:52.445Z,100
2022-11-13T16:22:28.641Z,100
2022-11-13T16:41:41.224Z,100
2022-11-13T16:51:18.171Z,100
2022-11-13T17:00:58.951Z,100
2022-11-13T17:20:08.544Z,100
2022-11-13T17:29:45.043Z,100
2022-11-13T17:39:21.777Z,100
2022-11-13T17:48:58.254Z,100
2022-11-13T17:58:34.765Z,100
2022-11-13T18:08:11.555Z,100
2022-11-13T18:17:48.511Z,100
2022-11-13T18:27:24.835Z,100
2022-11-13T18:37:01.778Z,100
2022-11-13T18:46:38.556Z,100
2022-11-13T19:05:52.449Z,100
2022-11-13T19:15:29.248Z,100
2022-11-13T19:25:05.838Z,100
2022-11-13T19:34:46.371Z,100
2022-11-13T19:44:19.822Z,100
2022-11-13T19:53:56.669Z,100
2022-11-13T20:13:09.665Z,100
2022-11-13T20:32:23.131Z,100
2022-11-13T20:41:59.902Z,100
2022-11-13T20:51:36.516Z,100
2022-11-13T21:10:49.973Z,100
2022-11-13T21:30:03.233Z,100
2022-11-13T21:39:39.813Z,100
2022-11-13T21:49:16.851Z,100
2022-11-13T21:58:53.962Z,100
2022-11-13T22:18:07.135Z,100
2022-11-13T22:27:43.999Z,100
2022-11-13T22:37:20.785Z,100
2022-11-13T22:46:57.382Z,100
2022-11-13T22:56:34.211Z,100
2022-11-13T23:06:11.030Z,100
2022-11-13T23:15:47.318Z,100
2022-11-13T23:25:24.409Z,100
2022-11-13T23:35:01.055Z,100
2022-11-13T23:54:14.331Z,100
